createdAt,value
2017-04-23T00:08:13.235Z,4.4
2017-04-23T00:18:27.393Z,4.4
2017-04-23T00:28:42.988Z,4.6
2017-04-23T00:38:56.853Z,4.5
2017-04-23T00:49:10.661Z,4.6
2017-04-23T00:59:26.081Z,4.6
2017-04-23T01:09:41.745Z,4.6
2017-04-23T01:19:56.735Z,4.2
2017-04-23T01:30:11.434Z,4.1
2017-04-23T01:40:25.854Z,4.2
2017-04-23T01:50:40.359Z,4.2
2017-04-23T02:00:55.796Z,4.2
2017-04-23T02:11:10.410Z,3.9
2017-04-23T02:21:24.093Z,3.6
2017-04-23T02:31:38.557Z,3.6
2017-04-23T02:41:54.106Z,3.5
2017-04-23T02:52:09.160Z,3.4
2017-04-23T03:02:24.317Z,3.1
2017-04-23T03:12:38.811Z,3.5
2017-04-23T03:22:53.959Z,3.5
2017-04-23T03:33:08.835Z,3.7
2017-04-23T03:43:23.768Z,3.5
2017-04-23T03:53:39.201Z,3.5
2017-04-23T04:03:52.916Z,3.3
2017-04-23T04:14:07.179Z,3.3
2017-04-23T04:24:21.037Z,3.2
2017-04-23T04:34:34.743Z,3.7
2017-04-23T04:44:50.270Z,4
2017-04-23T04:55:04.659Z,4
2017-04-23T05:05:19.371Z,4.1
2017-04-23T05:15:34.962Z,4.4
2017-04-23T05:25:49.685Z,4.7
2017-04-23T05:36:03.382Z,4.9
2017-04-23T05:46:18.239Z,5.2
2017-04-23T05:56:31.962Z,5.3
2017-04-23T06:06:47.585Z,5.4
2017-04-23T06:17:01.993Z,5.6
2017-04-23T06:27:16.495Z,5.7
2017-04-23T06:37:30.576Z,6.3
2017-04-23T06:47:46.054Z,7.3
2017-04-23T06:58:01.215Z,7.1
2017-04-23T07:08:16.405Z,6.7
2017-04-23T07:18:30.315Z,7
2017-04-23T07:28:45.667Z,7.5
2017-04-23T07:39:01.291Z,9
2017-04-23T07:49:15.099Z,8.5
2017-04-23T07:59:29.380Z,8.7
2017-04-23T08:09:43.612Z,9.3
2017-04-23T08:19:58.721Z,10
2017-04-23T08:30:12.667Z,9
2017-04-23T08:40:27.962Z,10.1
2017-04-23T08:50:42.123Z,10.2
2017-04-23T09:00:56.610Z,10.2
2017-04-23T09:11:11.625Z,11.4
2017-04-23T09:21:26.059Z,9.7
2017-04-23T09:31:41.195Z,9.8
2017-04-23T09:41:55.026Z,9.4
2017-04-23T09:52:10.383Z,9
2017-04-23T10:02:25.945Z,10.7
2017-04-23T10:12:40.641Z,10.4
2017-04-23T10:22:56.141Z,9.3
2017-04-23T10:33:11.350Z,6.5
2017-04-23T10:43:26.826Z,7.8
2017-04-23T10:53:41.128Z,8.3
2017-04-23T11:03:56.468Z,8.5
2017-04-23T11:14:11.491Z,9.5
2017-04-23T11:24:25.710Z,10.5
2017-04-23T11:34:41.406Z,10.6
2017-04-23T11:44:55.885Z,10.9
2017-04-23T11:55:10.068Z,12.1
2017-04-23T12:05:24.815Z,10.3
2017-04-23T12:15:38.663Z,9.9
2017-04-23T12:25:54.269Z,10.4
2017-04-23T12:36:09.016Z,11.4
2017-04-23T12:46:24.336Z,11.5
2017-04-23T12:56:39.463Z,12.7
2017-04-23T13:06:54.053Z,11.3
2017-04-23T13:17:08.055Z,11.7
2017-04-23T13:27:23.591Z,14.5
2017-04-23T13:37:39.258Z,11.1
2017-04-23T13:47:54.799Z,10.2
2017-04-23T13:58:10.305Z,10
2017-04-23T14:08:24.185Z,10.2
2017-04-23T14:18:39.553Z,10.9
2017-04-23T14:28:53.427Z,11.3
2017-04-23T14:39:08.070Z,11
2017-04-23T14:49:23.736Z,10.7
2017-04-23T14:59:37.550Z,10.8
2017-04-23T15:09:53.005Z,10.6
2017-04-23T15:20:06.948Z,10.7
2017-04-23T15:30:20.758Z,12.3
2017-04-23T15:40:35.428Z,13.2
2017-04-23T15:50:50.511Z,10.6
2017-04-23T16:01:05.132Z,10
2017-04-23T16:11:19.496Z,9.3
2017-04-23T16:21:34.613Z,9.3
2017-04-23T16:31:50.055Z,9.4
2017-04-23T16:42:05.624Z,9.3
2017-04-23T16:52:20.999Z,9.2
2017-04-23T17:02:35.293Z,9.2
2017-04-23T17:12:49.398Z,9
2017-04-23T17:23:03.583Z,9
2017-04-23T17:33:18.869Z,9.2
2017-04-23T17:43:34.425Z,9.1
2017-04-23T17:53:48.443Z,9.1
2017-04-23T18:04:03.405Z,8.7
2017-04-23T18:14:17.197Z,8.2
2017-04-23T18:24:30.941Z,7.9
2017-04-23T18:34:45.422Z,7.8
2017-04-23T18:45:00.927Z,7.6
2017-04-23T18:55:15.590Z,7.6
2017-04-23T19:05:30.939Z,7.3
2017-04-23T19:15:45.834Z,7.5
2017-04-23T19:26:01.373Z,7
2017-04-23T19:36:16.702Z,6.6
2017-04-23T19:46:31.183Z,6.1
2017-04-23T19:56:46.475Z,5.9
2017-04-23T20:07:01.121Z,5.5
2017-04-23T20:17:16.256Z,4.9
2017-04-23T20:27:30.517Z,4.8
2017-04-23T20:37:44.650Z,4.5
2017-04-23T20:47:59.574Z,4.4
2017-04-23T20:58:13.493Z,4.1
2017-04-23T21:08:28.141Z,4
2017-04-23T21:18:42.230Z,3.9
2017-04-23T21:28:56.168Z,3.7
2017-04-23T21:39:11.375Z,3.9
2017-04-23T21:49:26.768Z,3.6
2017-04-23T21:59:40.646Z,3.1
2017-04-23T22:09:54.858Z,3.2
2017-04-23T22:20:10.195Z,2.8
2017-04-23T22:30:25.282Z,2.8
2017-04-23T22:40:39.001Z,2.8
2017-04-23T22:50:53.243Z,2.7
2017-04-23T23:01:08.706Z,2.5
2017-04-23T23:11:22.408Z,2.6
2017-04-23T23:21:37.767Z,2.4
2017-04-23T23:31:51.902Z,2.3
2017-04-23T23:42:06.933Z,2.3
2017-04-23T23:52:22.245Z,2.2
